Pagrindinis puslapis
METAR-TAF:

METAR-TAF

Oro uostai :

Valdosta Regional Airport

Valdosta, Georgia, Jungtinės Amerikos Valstijos

platuma: 30-47N, ilguma: 083-17W, Aukštis: 62 m

Dabartinis oras

Ataskaita buvo paskelbta 1 valandą ir 4 minutes, ne 21:53 UTC
Vėjas 7 kt iš Šiaurės/Šiaurės Rytų
Temperatūra 30°C
Drėgmė 59%
Slėgis 1015 hPa
Matomumas: 16.1 km
Išsisklaidę debesys ne aukštis 4500 ft
Su prošvaistėmis ne aukštis 5500 ft
Apsiniaukę ne aukštis 11000 ft

METAR: KVLD 302153Z 02007KT 10SM SCT045 BKN055 OVC110 30/21 A2996 RMK AO2 SLP150 T03000206 $

Laikas: 18:57 (22:57 UTC)

Prognozė

Ataskaita buvo paskelbta 5 valandos ir 35 minutes, ne 17:22 UTC
Prognozė galioja nuo 30 metu 18 UTC su 31 metu 18 UTC
Vėjas 3 kt nuo kintamojo kryptimis
Matomumas: 10 km
Išsisklaidę debesys ne aukštis 3000 ft
Nuo 31 metu 1400 UTC
Vėjas 5 kt iš Šiaurės
Matomumas: 10 km
Giedras dangus

TAF: KVLD 301722Z 3018/3118 VRB03KT P6SM SCT030 FM311400 35005KT P6SM SKC

Orai ataskaitas ir orų prognozės (METAR, TAF).

turimą stotys yra geltonos ir raudonos taškus žemėlapyje.

Perkelti pele per norėdami pamatyti stoties vardą.

Tada spustelėkite, norėdami matyti oro stebėjimo ir prognozės.

Norėdami pakeisti žemėlapį: spustelėkite ant žalios mygtukų su juodo kryžiaus žemyn,; žalią mygtuką su brūkšneliu, jei norite nutolinti; arba žalių rodyklių gretimoms žemėlapius.


METAR-TAF: